AAL1322 KDEN-KDFW
Flight info
| Callsign | AAL1322 |
|---|---|
| Flight time | 1h 35m |
| Altitude | 37000 |
| Route | SLEEK2 SLEEK EZEEE MDANO JOVEM6 |
| Aircraft | B738/M-SDE2E3FGHIRWXY/LB1 |
Departure
| Time | 2026-05-06 11:53 |
|---|---|
| Airport | Denver International Airport (KDEN) |
Arrival
| Time | 2026-05-06 13:29 |
|---|---|
| Airport | Dallas Fort Worth International Airport (KDFW) |
| Time | Latitude | Longitude | Altitude | Speed | Heading |
|---|---|---|---|---|---|
| 2026-05-06 11:26 | 39.86258 | -104.67525 | 5372 ft | 0 kts | 0° |
| 2026-05-06 11:42 | 39.86249 | -104.67525 | 5371 ft | 4 kts | 7° |
| 2026-05-06 11:42 | 39.86223 | -104.67526 | 5374 ft | 4 kts | 349° |
| 2026-05-06 11:42 | 39.86199 | -104.67514 | 5372 ft | 4 kts | 316° |
| 2026-05-06 11:42 | 39.86186 | -104.67490 | 5370 ft | 1 kts | 285° |
| 2026-05-06 11:43 | 39.86186 | -104.67489 | 5370 ft | 1 kts | 285° |
| 2026-05-06 11:44 | 39.86186 | -104.67490 | 5370 ft | 0 kts | 285° |
| 2026-05-06 11:46 | 39.86186 | -104.67491 | 5370 ft | 1 kts | 284° |
| 2026-05-06 11:46 | 39.86190 | -104.67517 | 5373 ft | 6 kts | 278° |
| 2026-05-06 11:46 | 39.86192 | -104.67606 | 5375 ft | 12 kts | 269° |
| 2026-05-06 11:47 | 39.86194 | -104.67723 | 5377 ft | 14 kts | 265° |
| 2026-05-06 11:47 | 39.86139 | -104.67819 | 5379 ft | 13 kts | 251° |
| 2026-05-06 11:47 | 39.86137 | -104.67936 | 5377 ft | 13 kts | 270° |
| 2026-05-06 11:47 | 39.86137 | -104.68050 | 5383 ft | 12 kts | 270° |
| 2026-05-06 11:48 | 39.86138 | -104.68163 | 5386 ft | 13 kts | 270° |
| 2026-05-06 11:48 | 39.86139 | -104.68279 | 5390 ft | 13 kts | 271° |
| 2026-05-06 11:48 | 39.86140 | -104.68400 | 5392 ft | 14 kts | 270° |
| 2026-05-06 11:48 | 39.86109 | -104.68504 | 5389 ft | 13 kts | 196° |
| 2026-05-06 11:49 | 39.86011 | -104.68508 | 5387 ft | 16 kts | 180° |
| 2026-05-06 11:49 | 39.85870 | -104.68511 | 5377 ft | 22 kts | 181° |
| 2026-05-06 11:49 | 39.85718 | -104.68514 | 5375 ft | 21 kts | 181° |
| 2026-05-06 11:49 | 39.85573 | -104.68516 | 5372 ft | 21 kts | 180° |
| 2026-05-06 11:50 | 39.85432 | -104.68518 | 5371 ft | 20 kts | 180° |
| 2026-05-06 11:50 | 39.85295 | -104.68519 | 5373 ft | 19 kts | 180° |
| 2026-05-06 11:50 | 39.85212 | -104.68563 | 5371 ft | 14 kts | 251° |
| 2026-05-06 11:50 | 39.85204 | -104.68687 | 5365 ft | 17 kts | 268° |
| 2026-05-06 11:51 | 39.85203 | -104.68700 | 5364 ft | 18 kts | 268° |
| 2026-05-06 11:51 | 39.85201 | -104.68852 | 5356 ft | 20 kts | 268° |
| 2026-05-06 11:51 | 39.85197 | -104.69044 | 5350 ft | 22 kts | 269° |
| 2026-05-06 11:51 | 39.85199 | -104.69256 | 5341 ft | 25 kts | 272° |
| 2026-05-06 11:52 | 39.85204 | -104.69484 | 5341 ft | 24 kts | 270° |
| 2026-05-06 11:52 | 39.85203 | -104.69598 | 5350 ft | 10 kts | 270° |
| 2026-05-06 11:52 | 39.85244 | -104.69657 | 5351 ft | 9 kts | 347° |
| 2026-05-06 11:52 | 39.85406 | -104.69655 | 5355 ft | 54 kts | 1° |
| 2026-05-06 11:53 | 39.86011 | -104.69647 | 5365 ft | 119 kts | 1° |
| 2026-05-06 11:53 | 39.87024 | -104.69626 | 5472 ft | 165 kts | 1° |
| 2026-05-06 11:53 | 39.88161 | -104.69627 | 6442 ft | 157 kts | 2° |
| 2026-05-06 11:53 | 39.89238 | -104.69588 | 7186 ft | 162 kts | 5° |
| 2026-05-06 11:54 | 39.90162 | -104.69526 | 7549 ft | 179 kts | 5° |
| 2026-05-06 11:54 | 39.91044 | -104.69461 | 7755 ft | 196 kts | 5° |
| 2026-05-06 11:54 | 39.92484 | -104.69381 | 7958 ft | 219 kts | 3° |
| 2026-05-06 11:55 | 39.94091 | -104.69316 | 8152 ft | 242 kts | 6° |
| 2026-05-06 11:55 | 39.95720 | -104.68546 | 8318 ft | 264 kts | 41° |
| 2026-05-06 11:55 | 39.96714 | -104.66518 | 8907 ft | 273 kts | 76° |
| 2026-05-06 11:55 | 39.96730 | -104.64053 | 9772 ft | 277 kts | 102° |
| 2026-05-06 11:56 | 39.95927 | -104.61739 | 10405 ft | 291 kts | 127° |
| 2026-05-06 11:56 | 39.94326 | -104.59971 | 10591 ft | 317 kts | 153° |
| 2026-05-06 11:56 | 39.93471 | -104.59500 | 10728 ft | 325 kts | 161° |
| 2026-05-06 11:56 | 39.91791 | -104.58889 | 11183 ft | 332 kts | 167° |
| 2026-05-06 11:57 | 39.89511 | -104.58279 | 11956 ft | 336 kts | 170° |
| 2026-05-06 11:57 | 39.87204 | -104.57712 | 12770 ft | 339 kts | 171° |
| 2026-05-06 11:57 | 39.84874 | -104.57124 | 13570 ft | 343 kts | 171° |
| 2026-05-06 11:57 | 39.82517 | -104.56496 | 14288 ft | 348 kts | 171° |
| 2026-05-06 11:58 | 39.80137 | -104.55833 | 14943 ft | 353 kts | 171° |
| 2026-05-06 11:58 | 39.77722 | -104.55140 | 15579 ft | 359 kts | 171° |
| 2026-05-06 11:58 | 39.75267 | -104.54420 | 16222 ft | 364 kts | 171° |
| 2026-05-06 11:58 | 39.72780 | -104.53682 | 16865 ft | 369 kts | 171° |
| 2026-05-06 11:59 | 39.70228 | -104.52920 | 17501 ft | 374 kts | 171° |
| 2026-05-06 11:59 | 39.67670 | -104.52154 | 18132 ft | 380 kts | 172° |
| 2026-05-06 11:59 | 39.65081 | -104.51377 | 18732 ft | 384 kts | 172° |
| 2026-05-06 11:59 | 39.62469 | -104.50593 | 19359 ft | 386 kts | 172° |
| 2026-05-06 12:00 | 39.59849 | -104.49806 | 20019 ft | 387 kts | 172° |
| 2026-05-06 12:00 | 39.57217 | -104.49016 | 20644 ft | 389 kts | 173° |
| 2026-05-06 12:00 | 39.54569 | -104.48223 | 21203 ft | 392 kts | 173° |
| 2026-05-06 12:00 | 39.51904 | -104.47426 | 21773 ft | 395 kts | 173° |
| 2026-05-06 12:01 | 39.49218 | -104.46624 | 22381 ft | 397 kts | 173° |
| 2026-05-06 12:01 | 39.46520 | -104.45818 | 22982 ft | 399 kts | 173° |
| 2026-05-06 12:01 | 39.43813 | -104.45010 | 23570 ft | 401 kts | 174° |
| 2026-05-06 12:01 | 39.41088 | -104.44198 | 24068 ft | 403 kts | 174° |
| 2026-05-06 12:02 | 39.38348 | -104.43381 | 24542 ft | 405 kts | 174° |
| 2026-05-06 12:02 | 39.35598 | -104.42562 | 25007 ft | 406 kts | 174° |
| 2026-05-06 12:02 | 39.32835 | -104.41740 | 25446 ft | 408 kts | 174° |
| 2026-05-06 12:02 | 39.30062 | -104.40916 | 25902 ft | 410 kts | 174° |
| 2026-05-06 12:03 | 39.27280 | -104.40090 | 26320 ft | 412 kts | 174° |
| 2026-05-06 12:03 | 39.24476 | -104.39258 | 26732 ft | 415 kts | 174° |
| 2026-05-06 12:03 | 39.21655 | -104.38421 | 27136 ft | 417 kts | 174° |
| 2026-05-06 12:03 | 39.18821 | -104.37580 | 27536 ft | 419 kts | 174° |
| 2026-05-06 12:04 | 39.15970 | -104.36737 | 27935 ft | 421 kts | 174° |
| 2026-05-06 12:04 | 39.13104 | -104.35882 | 28274 ft | 424 kts | 173° |
| 2026-05-06 12:04 | 39.10225 | -104.34981 | 28590 ft | 428 kts | 172° |
| 2026-05-06 12:04 | 39.07325 | -104.34049 | 28920 ft | 432 kts | 172° |
| 2026-05-06 12:05 | 39.04406 | -104.33103 | 29296 ft | 433 kts | 172° |
| 2026-05-06 12:05 | 39.01476 | -104.32154 | 29664 ft | 435 kts | 172° |
| 2026-05-06 12:05 | 38.98527 | -104.31204 | 30015 ft | 437 kts | 172° |
| 2026-05-06 12:05 | 38.95569 | -104.30255 | 30306 ft | 440 kts | 172° |
| 2026-05-06 12:06 | 38.92593 | -104.29304 | 30575 ft | 442 kts | 172° |
| 2026-05-06 12:06 | 38.89598 | -104.28350 | 30746 ft | 446 kts | 172° |
| 2026-05-06 12:06 | 38.86569 | -104.27386 | 30924 ft | 450 kts | 172° |
| 2026-05-06 12:06 | 38.83442 | -104.26391 | 31215 ft | 451 kts | 172° |
| 2026-05-06 12:07 | 38.80397 | -104.25422 | 31569 ft | 450 kts | 172° |
| 2026-05-06 12:07 | 38.77366 | -104.24456 | 32008 ft | 447 kts | 172° |
| 2026-05-06 12:07 | 38.74405 | -104.23509 | 32904 ft | 432 kts | 172° |
| 2026-05-06 12:07 | 38.71493 | -104.22583 | 33302 ft | 432 kts | 172° |
| 2026-05-06 12:08 | 38.68565 | -104.21660 | 33449 ft | 435 kts | 173° |
| 2026-05-06 12:08 | 38.65617 | -104.20731 | 33672 ft | 437 kts | 173° |
| 2026-05-06 12:08 | 38.62657 | -104.19797 | 33932 ft | 438 kts | 173° |
| 2026-05-06 12:08 | 38.59697 | -104.18861 | 34224 ft | 438 kts | 173° |
| 2026-05-06 12:09 | 38.56747 | -104.17927 | 34520 ft | 436 kts | 173° |
| 2026-05-06 12:09 | 38.53805 | -104.16978 | 34774 ft | 438 kts | 171° |
| 2026-05-06 12:09 | 38.50929 | -104.15564 | 34984 ft | 449 kts | 161° |
| 2026-05-06 12:09 | 38.48195 | -104.13565 | 35188 ft | 458 kts | 153° |
| 2026-05-06 12:10 | 38.45682 | -104.11028 | 35530 ft | 461 kts | 148° |
| 2026-05-06 12:10 | 38.43251 | -104.08370 | 35832 ft | 461 kts | 147° |
| 2026-05-06 12:10 | 38.40825 | -104.05686 | 35963 ft | 463 kts | 147° |
| 2026-05-06 12:10 | 38.38384 | -104.02997 | 36113 ft | 464 kts | 148° |
| 2026-05-06 12:11 | 38.35933 | -104.00320 | 36330 ft | 464 kts | 148° |
| 2026-05-06 12:11 | 38.33479 | -103.97660 | 36577 ft | 463 kts | 148° |
| 2026-05-06 12:11 | 38.31020 | -103.95011 | 36785 ft | 463 kts | 148° |
| 2026-05-06 12:11 | 38.28556 | -103.92368 | 36932 ft | 463 kts | 149° |
| 2026-05-06 12:12 | 38.26091 | -103.89729 | 37091 ft | 464 kts | 149° |
| 2026-05-06 12:12 | 38.23610 | -103.87077 | 37086 ft | 467 kts | 149° |
| 2026-05-06 12:12 | 38.18634 | -103.81756 | 37094 ft | 467 kts | 150° |
| 2026-05-06 12:13 | 38.13703 | -103.76485 | 37082 ft | 461 kts | 150° |
| 2026-05-06 12:13 | 38.08805 | -103.71265 | 37090 ft | 458 kts | 150° |
| 2026-05-06 12:14 | 38.03902 | -103.66053 | 37086 ft | 456 kts | 151° |
| 2026-05-06 12:14 | 37.99045 | -103.60903 | 37091 ft | 454 kts | 151° |
| 2026-05-06 12:15 | 37.94194 | -103.55770 | 37072 ft | 454 kts | 151° |
| 2026-05-06 12:15 | 37.89335 | -103.50636 | 37078 ft | 455 kts | 151° |
| 2026-05-06 12:16 | 37.84466 | -103.45499 | 37060 ft | 456 kts | 153° |
| 2026-05-06 12:16 | 37.79549 | -103.40320 | 37065 ft | 457 kts | 153° |
| 2026-05-06 12:17 | 37.74649 | -103.35169 | 37071 ft | 459 kts | 153° |
| 2026-05-06 12:17 | 37.69736 | -103.30012 | 37051 ft | 460 kts | 153° |
| 2026-05-06 12:18 | 37.64812 | -103.24851 | 37060 ft | 460 kts | 153° |
| 2026-05-06 12:18 | 37.59845 | -103.19655 | 37054 ft | 461 kts | 153° |
| 2026-05-06 12:19 | 37.54911 | -103.14502 | 37058 ft | 461 kts | 153° |
| 2026-05-06 12:19 | 37.49977 | -103.09358 | 37046 ft | 460 kts | 154° |
| 2026-05-06 12:20 | 37.45048 | -103.04229 | 37012 ft | 459 kts | 154° |
| 2026-05-06 12:20 | 37.40134 | -102.99124 | 37025 ft | 458 kts | 154° |
| 2026-05-06 12:21 | 37.35228 | -102.94038 | 37028 ft | 457 kts | 154° |
| 2026-05-06 12:21 | 37.30332 | -102.88971 | 37026 ft | 456 kts | 154° |
| 2026-05-06 12:22 | 37.25438 | -102.83916 | 37022 ft | 455 kts | 154° |
| 2026-05-06 12:22 | 37.21355 | -102.79702 | 37016 ft | 453 kts | 155° |
| 2026-05-06 12:23 | 37.16488 | -102.74690 | 37007 ft | 452 kts | 156° |
| 2026-05-06 12:23 | 37.11628 | -102.69695 | 37006 ft | 451 kts | 156° |
| 2026-05-06 12:24 | 37.06760 | -102.64703 | 37016 ft | 453 kts | 156° |
| 2026-05-06 12:24 | 37.01866 | -102.59695 | 36993 ft | 455 kts | 156° |
| 2026-05-06 12:25 | 36.96953 | -102.54670 | 37013 ft | 457 kts | 156° |
| 2026-05-06 12:25 | 36.92047 | -102.49654 | 36994 ft | 453 kts | 157° |
| 2026-05-06 12:26 | 36.87187 | -102.44689 | 37002 ft | 450 kts | 157° |
| 2026-05-06 12:26 | 36.82337 | -102.39759 | 36945 ft | 451 kts | 158° |
| 2026-05-06 12:27 | 36.77400 | -102.34760 | 37004 ft | 457 kts | 158° |
| 2026-05-06 12:27 | 36.72431 | -102.29733 | 37038 ft | 462 kts | 158° |
| 2026-05-06 12:28 | 36.67463 | -102.24692 | 37000 ft | 458 kts | 158° |
| 2026-05-06 12:28 | 36.62562 | -102.19717 | 37001 ft | 452 kts | 158° |
| 2026-05-06 12:29 | 36.57663 | -102.14770 | 37007 ft | 448 kts | 158° |
| 2026-05-06 12:29 | 36.52824 | -102.09900 | 37013 ft | 447 kts | 158° |
| 2026-05-06 12:30 | 36.50944 | -102.08015 | 37025 ft | 449 kts | 158° |
| 2026-05-06 12:30 | 36.48981 | -102.06049 | 37031 ft | 452 kts | 158° |
| 2026-05-06 12:31 | 36.44076 | -102.01142 | 37025 ft | 459 kts | 158° |
| 2026-05-06 12:31 | 36.39056 | -101.96109 | 37038 ft | 462 kts | 158° |
| 2026-05-06 12:32 | 36.34049 | -101.91088 | 37027 ft | 463 kts | 158° |
| 2026-05-06 12:32 | 36.29292 | -101.86329 | 37039 ft | 464 kts | 158° |
| 2026-05-06 12:33 | 36.24268 | -101.81313 | 37016 ft | 463 kts | 158° |
| 2026-05-06 12:33 | 36.19295 | -101.76357 | 37015 ft | 461 kts | 158° |
| 2026-05-06 12:34 | 36.14278 | -101.71366 | 37017 ft | 458 kts | 158° |
| 2026-05-06 12:34 | 36.09331 | -101.66454 | 37027 ft | 455 kts | 159° |
| 2026-05-06 12:35 | 36.04397 | -101.61569 | 37040 ft | 454 kts | 159° |
| 2026-05-06 12:35 | 35.99475 | -101.56703 | 37050 ft | 453 kts | 159° |
| 2026-05-06 12:36 | 35.94554 | -101.51845 | 37013 ft | 453 kts | 159° |
| 2026-05-06 12:36 | 35.89632 | -101.46991 | 37048 ft | 453 kts | 159° |
| 2026-05-06 12:37 | 35.84690 | -101.42127 | 37105 ft | 455 kts | 159° |
| 2026-05-06 12:37 | 35.79750 | -101.37168 | 37108 ft | 468 kts | 154° |
| 2026-05-06 12:38 | 35.75066 | -101.31448 | 37124 ft | 478 kts | 150° |
| 2026-05-06 12:38 | 35.70442 | -101.25504 | 37047 ft | 481 kts | 150° |
| 2026-05-06 12:39 | 35.65799 | -101.19594 | 37080 ft | 481 kts | 151° |
| 2026-05-06 12:39 | 35.61108 | -101.13720 | 37096 ft | 481 kts | 151° |
| 2026-05-06 12:40 | 35.56401 | -101.07868 | 37104 ft | 482 kts | 151° |
| 2026-05-06 12:40 | 35.51690 | -101.02023 | 37093 ft | 482 kts | 151° |
| 2026-05-06 12:41 | 35.47775 | -100.97170 | 37087 ft | 481 kts | 151° |
| 2026-05-06 12:41 | 35.43076 | -100.91351 | 37088 ft | 479 kts | 151° |
| 2026-05-06 12:42 | 35.38354 | -100.85516 | 37077 ft | 478 kts | 151° |
| 2026-05-06 12:42 | 35.33672 | -100.79741 | 37062 ft | 477 kts | 152° |
| 2026-05-06 12:43 | 35.29006 | -100.73995 | 37059 ft | 475 kts | 152° |
| 2026-05-06 12:43 | 35.24353 | -100.68276 | 37033 ft | 473 kts | 151° |
| 2026-05-06 12:44 | 35.19713 | -100.62582 | 37043 ft | 472 kts | 152° |
| 2026-05-06 12:44 | 35.15076 | -100.56907 | 37041 ft | 472 kts | 152° |
| 2026-05-06 12:45 | 35.10439 | -100.51240 | 37049 ft | 472 kts | 152° |
| 2026-05-06 12:46 | 35.03474 | -100.42742 | 37001 ft | 472 kts | 151° |
| 2026-05-06 12:46 | 34.98833 | -100.37090 | 37030 ft | 472 kts | 151° |
| 2026-05-06 12:47 | 34.94146 | -100.31396 | 37051 ft | 473 kts | 151° |
| 2026-05-06 12:47 | 34.89475 | -100.25730 | 37039 ft | 474 kts | 151° |
| 2026-05-06 12:48 | 34.84796 | -100.20062 | 37026 ft | 476 kts | 151° |
| 2026-05-06 12:48 | 34.80095 | -100.14376 | 37000 ft | 476 kts | 151° |
| 2026-05-06 12:49 | 34.75405 | -100.08711 | 37023 ft | 476 kts | 151° |
| 2026-05-06 12:49 | 34.70702 | -100.03042 | 37032 ft | 476 kts | 151° |
| 2026-05-06 12:50 | 34.66001 | -99.97386 | 37029 ft | 476 kts | 151° |
| 2026-05-06 12:50 | 34.61290 | -99.91727 | 37024 ft | 476 kts | 151° |
| 2026-05-06 12:51 | 34.56586 | -99.86085 | 37003 ft | 475 kts | 151° |
| 2026-05-06 12:51 | 34.51857 | -99.80422 | 37011 ft | 474 kts | 151° |
| 2026-05-06 12:52 | 34.47190 | -99.74845 | 37013 ft | 474 kts | 151° |
| 2026-05-06 12:52 | 34.42472 | -99.69215 | 37017 ft | 473 kts | 151° |
| 2026-05-06 12:53 | 34.37814 | -99.63665 | 37017 ft | 472 kts | 151° |
| 2026-05-06 12:53 | 34.33109 | -99.58035 | 36994 ft | 477 kts | 147° |
| 2026-05-06 12:53 | 34.31115 | -99.54673 | 37012 ft | 503 kts | 134° |
| 2026-05-06 12:54 | 34.29380 | -99.50995 | 37016 ft | 506 kts | 133° |
| 2026-05-06 12:54 | 34.25972 | -99.43527 | 36992 ft | 507 kts | 132° |
| 2026-05-06 12:55 | 34.23115 | -99.37365 | 37010 ft | 505 kts | 133° |
| 2026-05-06 12:55 | 34.19624 | -99.30003 | 37017 ft | 504 kts | 134° |
| 2026-05-06 12:56 | 34.16107 | -99.22668 | 37007 ft | 505 kts | 134° |
| 2026-05-06 12:56 | 34.12587 | -99.15339 | 36979 ft | 505 kts | 134° |
| 2026-05-06 12:57 | 34.09064 | -99.08008 | 37002 ft | 505 kts | 133° |
| 2026-05-06 12:57 | 34.05535 | -99.00678 | 37016 ft | 506 kts | 133° |
| 2026-05-06 12:58 | 34.04670 | -98.98884 | 37021 ft | 506 kts | 133° |
| 2026-05-06 12:59 | 34.02066 | -98.93493 | 36740 ft | 512 kts | 133° |
| 2026-05-06 12:59 | 34.00265 | -98.89772 | 36251 ft | 513 kts | 133° |
| 2026-05-06 12:59 | 33.98475 | -98.86061 | 35736 ft | 512 kts | 133° |
| 2026-05-06 12:59 | 33.96687 | -98.82360 | 35195 ft | 512 kts | 133° |
| 2026-05-06 13:00 | 33.94895 | -98.78658 | 34628 ft | 512 kts | 133° |
| 2026-05-06 13:00 | 33.93073 | -98.74902 | 34007 ft | 513 kts | 133° |
| 2026-05-06 13:00 | 33.91273 | -98.71195 | 33328 ft | 514 kts | 133° |
| 2026-05-06 13:00 | 33.89467 | -98.67478 | 32671 ft | 513 kts | 132° |
| 2026-05-06 13:01 | 33.87666 | -98.63777 | 32075 ft | 512 kts | 132° |
| 2026-05-06 13:01 | 33.85865 | -98.60086 | 31445 ft | 512 kts | 132° |
| 2026-05-06 13:01 | 33.84061 | -98.56394 | 30799 ft | 512 kts | 131° |
| 2026-05-06 13:01 | 33.82253 | -98.52699 | 30113 ft | 513 kts | 131° |
| 2026-05-06 13:02 | 33.80440 | -98.48996 | 29305 ft | 514 kts | 130° |
| 2026-05-06 13:02 | 33.78642 | -98.45317 | 28798 ft | 507 kts | 130° |
| 2026-05-06 13:02 | 33.76866 | -98.41682 | 28208 ft | 502 kts | 130° |
| 2026-05-06 13:02 | 33.75103 | -98.38080 | 27684 ft | 497 kts | 130° |
| 2026-05-06 13:03 | 33.73357 | -98.34522 | 27169 ft | 492 kts | 130° |
| 2026-05-06 13:03 | 33.71624 | -98.30998 | 26643 ft | 488 kts | 130° |
| 2026-05-06 13:03 | 33.69906 | -98.27511 | 26146 ft | 483 kts | 130° |
| 2026-05-06 13:03 | 33.68201 | -98.24052 | 25648 ft | 480 kts | 130° |
| 2026-05-06 13:04 | 33.66505 | -98.20615 | 25123 ft | 476 kts | 130° |
| 2026-05-06 13:04 | 33.64825 | -98.17210 | 24633 ft | 472 kts | 130° |
| 2026-05-06 13:04 | 33.63156 | -98.13833 | 24127 ft | 469 kts | 130° |
| 2026-05-06 13:04 | 33.61490 | -98.10477 | 23600 ft | 467 kts | 130° |
| 2026-05-06 13:05 | 33.59826 | -98.07132 | 23013 ft | 465 kts | 130° |
| 2026-05-06 13:05 | 33.58180 | -98.03823 | 22482 ft | 460 kts | 130° |
| 2026-05-06 13:05 | 33.56549 | -98.00547 | 21974 ft | 456 kts | 130° |
| 2026-05-06 13:05 | 33.54929 | -97.97296 | 21481 ft | 452 kts | 130° |
| 2026-05-06 13:06 | 33.53324 | -97.94079 | 20968 ft | 448 kts | 130° |
| 2026-05-06 13:06 | 33.51735 | -97.90895 | 20489 ft | 444 kts | 130° |
| 2026-05-06 13:06 | 33.50157 | -97.87733 | 19990 ft | 441 kts | 130° |
| 2026-05-06 13:06 | 33.48591 | -97.84590 | 19511 ft | 438 kts | 130° |
| 2026-05-06 13:07 | 33.47037 | -97.81472 | 19016 ft | 435 kts | 130° |
| 2026-05-06 13:07 | 33.45489 | -97.78367 | 18532 ft | 433 kts | 130° |
| 2026-05-06 13:07 | 33.43949 | -97.75283 | 17974 ft | 430 kts | 129° |
| 2026-05-06 13:07 | 33.42419 | -97.72221 | 17467 ft | 426 kts | 129° |
| 2026-05-06 13:08 | 33.40906 | -97.69194 | 16995 ft | 422 kts | 129° |
| 2026-05-06 13:08 | 33.39417 | -97.66215 | 16733 ft | 412 kts | 129° |
| 2026-05-06 13:08 | 33.37890 | -97.63398 | 16470 ft | 394 kts | 138° |
| 2026-05-06 13:08 | 33.36020 | -97.61099 | 16053 ft | 381 kts | 146° |
| 2026-05-06 13:09 | 33.34086 | -97.58962 | 15642 ft | 377 kts | 146° |
| 2026-05-06 13:09 | 33.32181 | -97.56828 | 15214 ft | 374 kts | 145° |
| 2026-05-06 13:09 | 33.30318 | -97.54677 | 14839 ft | 370 kts | 144° |
| 2026-05-06 13:09 | 33.28508 | -97.52551 | 14698 ft | 359 kts | 144° |
| 2026-05-06 13:10 | 33.26724 | -97.50450 | 14376 ft | 354 kts | 144° |
| 2026-05-06 13:10 | 33.24994 | -97.48421 | 13993 ft | 352 kts | 144° |
| 2026-05-06 13:10 | 33.23253 | -97.46383 | 13597 ft | 349 kts | 144° |
| 2026-05-06 13:10 | 33.21504 | -97.44336 | 13192 ft | 346 kts | 143° |
| 2026-05-06 13:11 | 33.19795 | -97.42336 | 12792 ft | 341 kts | 143° |
| 2026-05-06 13:11 | 33.18125 | -97.40380 | 12505 ft | 331 kts | 143° |
| 2026-05-06 13:11 | 33.16504 | -97.38481 | 12372 ft | 322 kts | 143° |
| 2026-05-06 13:11 | 33.14931 | -97.36642 | 12233 ft | 313 kts | 143° |
| 2026-05-06 13:12 | 33.13382 | -97.34837 | 12113 ft | 312 kts | 143° |
| 2026-05-06 13:12 | 33.11849 | -97.33049 | 12040 ft | 305 kts | 143° |
| 2026-05-06 13:12 | 33.10345 | -97.31292 | 12030 ft | 300 kts | 143° |
| 2026-05-06 13:12 | 33.08850 | -97.29549 | 12033 ft | 301 kts | 143° |
| 2026-05-06 13:13 | 33.07348 | -97.27802 | 12040 ft | 303 kts | 143° |
| 2026-05-06 13:13 | 33.05839 | -97.26043 | 12029 ft | 303 kts | 143° |
| 2026-05-06 13:13 | 33.04330 | -97.24283 | 12032 ft | 303 kts | 143° |
| 2026-05-06 13:13 | 33.02839 | -97.22542 | 12018 ft | 297 kts | 143° |
| 2026-05-06 13:14 | 33.01383 | -97.20842 | 12008 ft | 288 kts | 144° |
| 2026-05-06 13:14 | 32.99964 | -97.19184 | 12004 ft | 276 kts | 144° |
| 2026-05-06 13:14 | 32.98580 | -97.17693 | 11998 ft | 257 kts | 158° |
| 2026-05-06 13:14 | 32.96994 | -97.17018 | 11877 ft | 238 kts | 180° |
| 2026-05-06 13:15 | 32.95352 | -97.16846 | 11638 ft | 237 kts | 186° |
| 2026-05-06 13:15 | 32.93695 | -97.16771 | 11387 ft | 239 kts | 186° |
| 2026-05-06 13:15 | 32.92037 | -97.16703 | 11164 ft | 238 kts | 186° |
| 2026-05-06 13:15 | 32.90387 | -97.16629 | 10935 ft | 237 kts | 186° |
| 2026-05-06 13:16 | 32.88744 | -97.16550 | 10715 ft | 236 kts | 186° |
| 2026-05-06 13:16 | 32.87107 | -97.16467 | 10479 ft | 236 kts | 185° |
| 2026-05-06 13:16 | 32.85468 | -97.16381 | 10267 ft | 235 kts | 185° |
| 2026-05-06 13:16 | 32.83834 | -97.16292 | 10049 ft | 236 kts | 185° |
| 2026-05-06 13:17 | 32.82194 | -97.16203 | 9826 ft | 237 kts | 185° |
| 2026-05-06 13:17 | 32.80545 | -97.16114 | 9581 ft | 238 kts | 185° |
| 2026-05-06 13:17 | 32.78892 | -97.16053 | 9370 ft | 237 kts | 187° |
| 2026-05-06 13:17 | 32.77238 | -97.16052 | 9134 ft | 238 kts | 187° |
| 2026-05-06 13:18 | 32.75568 | -97.16061 | 8897 ft | 238 kts | 187° |
| 2026-05-06 13:18 | 32.73924 | -97.16068 | 8668 ft | 239 kts | 186° |
| 2026-05-06 13:18 | 32.72270 | -97.16073 | 8445 ft | 239 kts | 186° |
| 2026-05-06 13:18 | 32.70598 | -97.16076 | 8221 ft | 240 kts | 186° |
| 2026-05-06 13:19 | 32.68928 | -97.16078 | 7988 ft | 240 kts | 186° |
| 2026-05-06 13:19 | 32.67239 | -97.16080 | 7743 ft | 240 kts | 185° |
| 2026-05-06 13:19 | 32.65571 | -97.16080 | 7528 ft | 238 kts | 184° |
| 2026-05-06 13:19 | 32.63918 | -97.16080 | 7294 ft | 237 kts | 184° |
| 2026-05-06 13:20 | 32.62276 | -97.16079 | 7081 ft | 235 kts | 184° |
| 2026-05-06 13:20 | 32.60642 | -97.16079 | 6856 ft | 234 kts | 184° |
| 2026-05-06 13:20 | 32.59021 | -97.16058 | 6632 ft | 234 kts | 178° |
| 2026-05-06 13:20 | 32.57497 | -97.15374 | 6419 ft | 240 kts | 145° |
| 2026-05-06 13:21 | 32.56438 | -97.13853 | 6204 ft | 243 kts | 116° |
| 2026-05-06 13:21 | 32.56085 | -97.11897 | 5983 ft | 247 kts | 87° |
| 2026-05-06 13:21 | 32.56539 | -97.09941 | 5786 ft | 250 kts | 59° |
| 2026-05-06 13:21 | 32.57554 | -97.08259 | 5542 ft | 251 kts | 51° |
| 2026-05-06 13:22 | 32.58664 | -97.06656 | 5278 ft | 252 kts | 42° |
| 2026-05-06 13:22 | 32.60165 | -97.05709 | 5009 ft | 244 kts | 4° |
| 2026-05-06 13:22 | 32.61831 | -97.05675 | 4839 ft | 238 kts | 357° |
| 2026-05-06 13:22 | 32.63495 | -97.05649 | 4602 ft | 240 kts | 358° |
| 2026-05-06 13:23 | 32.65170 | -97.05618 | 4366 ft | 241 kts | 357° |
| 2026-05-06 13:23 | 32.66843 | -97.05598 | 4163 ft | 239 kts | 358° |
| 2026-05-06 13:23 | 32.68490 | -97.05584 | 3956 ft | 233 kts | 357° |
| 2026-05-06 13:23 | 32.70081 | -97.05573 | 3742 ft | 223 kts | 356° |
| 2026-05-06 13:24 | 32.71581 | -97.05565 | 3517 ft | 207 kts | 358° |
| 2026-05-06 13:24 | 32.72964 | -97.05558 | 3307 ft | 191 kts | 357° |
| 2026-05-06 13:24 | 32.74230 | -97.05552 | 3140 ft | 173 kts | 359° |
| 2026-05-06 13:24 | 32.75357 | -97.05547 | 3059 ft | 150 kts | 359° |
| 2026-05-06 13:25 | 32.76346 | -97.05542 | 2916 ft | 135 kts | 360° |
| 2026-05-06 13:25 | 32.77285 | -97.05539 | 2710 ft | 132 kts | 0° |
| 2026-05-06 13:25 | 32.78192 | -97.05534 | 2557 ft | 129 kts | 1° |
| 2026-05-06 13:25 | 32.79098 | -97.05528 | 2399 ft | 130 kts | 1° |
| 2026-05-06 13:26 | 32.80001 | -97.05522 | 2167 ft | 128 kts | 0° |
| 2026-05-06 13:26 | 32.80881 | -97.05517 | 1984 ft | 125 kts | 360° |
| 2026-05-06 13:26 | 32.81764 | -97.05516 | 1802 ft | 129 kts | 1° |
| 2026-05-06 13:26 | 32.82663 | -97.05511 | 1680 ft | 128 kts | 0° |
| 2026-05-06 13:27 | 32.83545 | -97.05505 | 1483 ft | 127 kts | 1° |
| 2026-05-06 13:27 | 32.84444 | -97.05500 | 1303 ft | 132 kts | 0° |
| 2026-05-06 13:27 | 32.85363 | -97.05497 | 1137 ft | 133 kts | 1° |
| 2026-05-06 13:27 | 32.86276 | -97.05493 | 957 ft | 129 kts | 0° |
| 2026-05-06 13:28 | 32.86896 | -97.05489 | 838 ft | 129 kts | 359° |
| 2026-05-06 13:28 | 32.87765 | -97.05485 | 657 ft | 126 kts | 359° |
| 2026-05-06 13:28 | 32.88604 | -97.05480 | 597 ft | 109 kts | 359° |
| 2026-05-06 13:28 | 32.89210 | -97.05472 | 597 ft | 66 kts | 0° |
| 2026-05-06 13:29 | 32.89556 | -97.05474 | 597 ft | 35 kts | 359° |
| 2026-05-06 13:29 | 32.89781 | -97.05466 | 597 ft | 31 kts | 5° |
| 2026-05-06 13:29 | 32.89965 | -97.05386 | 597 ft | 26 kts | 26° |
| 2026-05-06 13:29 | 32.90080 | -97.05304 | 597 ft | 15 kts | 31° |
| 2026-05-06 13:30 | 32.90119 | -97.05213 | 597 ft | 14 kts | 85° |
| 2026-05-06 13:30 | 32.90119 | -97.05096 | 597 ft | 16 kts | 92° |
| 2026-05-06 13:30 | 32.90118 | -97.04957 | 597 ft | 17 kts | 89° |
| 2026-05-06 13:30 | 32.90119 | -97.04822 | 597 ft | 16 kts | 90° |
| 2026-05-06 13:31 | 32.90117 | -97.04717 | 597 ft | 13 kts | 91° |
| 2026-05-06 13:31 | 32.90130 | -97.04618 | 597 ft | 12 kts | 74° |
| 2026-05-06 13:31 | 32.90136 | -97.04520 | 597 ft | 12 kts | 89° |
| 2026-05-06 13:31 | 32.90136 | -97.04422 | 597 ft | 12 kts | 92° |
| 2026-05-06 13:32 | 32.90146 | -97.04363 | 597 ft | 6 kts | 47° |
| 2026-05-06 13:32 | 32.90186 | -97.04339 | 597 ft | 6 kts | 20° |
| 2026-05-06 13:32 | 32.90187 | -97.04338 | 597 ft | 0 kts | 20° |